createdAt,value
2017-06-12T00:00:01.709Z,23.15
2017-06-12T00:01:03.125Z,23.13
2017-06-12T00:02:04.545Z,23.20
2017-06-12T00:03:05.978Z,23.15
2017-06-12T00:04:07.382Z,23.17
2017-06-12T00:05:08.802Z,23.10
2017-06-12T00:06:10.214Z,23.10
2017-06-12T00:07:11.630Z,23.15
2017-06-12T00:08:13.045Z,23.15
2017-06-12T00:09:14.462Z,23.15
2017-06-12T00:10:15.872Z,23.17
2017-06-12T00:11:17.288Z,23.18
2017-06-12T00:12:18.703Z,23.15
2017-06-12T00:13:20.121Z,23.21
2017-06-12T00:14:21.541Z,23.21
2017-06-12T00:15:22.968Z,23.17
2017-06-12T00:16:24.381Z,23.18
2017-06-12T00:17:25.796Z,23.08
2017-06-12T00:18:27.222Z,23.13
2017-06-12T00:19:28.642Z,23.05
2017-06-12T00:20:30.063Z,23.13
2017-06-12T00:21:31.493Z,23.09
2017-06-12T00:22:32.898Z,23.17
2017-06-12T00:23:34.315Z,23.06
2017-06-12T00:24:35.729Z,23.20
2017-06-12T00:25:37.147Z,23.02
2017-06-12T00:26:38.570Z,23.17
2017-06-12T00:27:39.999Z,23.08
2017-06-12T00:28:41.416Z,23.03
2017-06-12T00:29:42.829Z,23.02
2017-06-12T00:30:44.249Z,23.08
2017-06-12T00:31:45.665Z,23.02
2017-06-12T00:32:47.077Z,23.08
2017-06-12T00:33:48.493Z,23.03
2017-06-12T00:34:49.913Z,23.06
2017-06-12T00:35:51.344Z,23.08
2017-06-12T00:36:52.757Z,23.02
2017-06-12T00:37:54.169Z,23.02
2017-06-12T00:38:55.584Z,23.02
2017-06-12T00:39:56.999Z,23.02
2017-06-12T00:40:58.415Z,23.00
2017-06-12T00:41:59.830Z,23.05
2017-06-12T00:43:01.248Z,23.03
2017-06-12T00:44:02.665Z,22.99
2017-06-12T00:45:04.084Z,23.03
2017-06-12T00:46:05.494Z,23.02
2017-06-12T00:47:06.911Z,23.06
2017-06-12T00:48:08.324Z,23.05
2017-06-12T00:49:09.754Z,23.05
2017-06-12T00:50:11.163Z,23.08
2017-06-12T00:51:12.582Z,23.05
2017-06-12T00:52:14.003Z,23.02
2017-06-12T00:53:15.438Z,23.02
2017-06-12T00:54:16.851Z,22.99
2017-06-12T00:55:18.270Z,23.00
2017-06-12T00:56:19.688Z,23.02
2017-06-12T00:57:21.105Z,23.05
2017-06-12T00:58:22.522Z,23.00
2017-06-12T00:59:23.937Z,22.96
2017-06-12T01:00:25.357Z,23.00
2017-06-12T01:01:26.773Z,23.02
2017-06-12T01:02:28.186Z,22.98
2017-06-12T01:03:29.606Z,23.00
2017-06-12T01:04:31.022Z,22.98
2017-06-12T01:05:32.441Z,22.98
2017-06-12T01:06:33.852Z,23.02
2017-06-12T01:07:35.270Z,22.94
2017-06-12T01:08:36.682Z,22.98
2017-06-12T01:09:38.100Z,22.98
2017-06-12T01:10:39.519Z,23.00
2017-06-12T01:11:40.937Z,22.98
2017-06-12T01:12:42.399Z,22.91
2017-06-12T01:13:43.874Z,22.96
2017-06-12T01:14:45.332Z,22.93
2017-06-12T01:15:46.729Z,22.90
2017-06-12T01:16:48.149Z,22.94
2017-06-12T01:17:49.670Z,22.91
2017-06-12T01:18:51.065Z,22.94
2017-06-12T01:19:52.484Z,22.93
2017-06-12T01:20:53.901Z,22.88
2017-06-12T01:21:55.320Z,22.91
2017-06-12T01:22:56.732Z,22.98
2017-06-12T01:23:58.145Z,22.93
2017-06-12T01:24:59.561Z,22.96
2017-06-12T01:26:00.986Z,22.94
2017-06-12T01:27:02.445Z,22.98
2017-06-12T01:28:03.865Z,23.00
2017-06-12T01:29:05.275Z,22.96
2017-06-12T01:30:06.697Z,23.02
2017-06-12T01:31:08.129Z,22.98
2017-06-12T01:32:09.581Z,22.94
2017-06-12T01:33:11.013Z,22.96
2017-06-12T01:34:12.427Z,22.87
2017-06-12T01:35:13.851Z,22.93
2017-06-12T01:36:15.261Z,22.98
2017-06-12T01:37:16.685Z,22.87
2017-06-12T01:38:18.103Z,22.83
2017-06-12T01:39:19.521Z,22.85
2017-06-12T01:40:20.946Z,22.83
2017-06-12T01:41:22.362Z,22.90
2017-06-12T01:42:23.814Z,22.87
2017-06-12T01:43:25.231Z,22.93
2017-06-12T01:44:26.645Z,22.85
2017-06-12T01:45:28.813Z,22.90
2017-06-12T01:46:30.243Z,22.85
2017-06-12T01:47:31.671Z,22.93
2017-06-12T01:48:33.088Z,22.83
2017-06-12T01:49:34.504Z,22.78
2017-06-12T01:50:36.526Z,22.84
2017-06-12T01:51:37.939Z,22.84
2017-06-12T01:52:39.353Z,22.87
2017-06-12T01:53:40.772Z,22.84
2017-06-12T01:54:42.190Z,22.81
2017-06-12T01:55:43.619Z,22.90
2017-06-12T01:56:45.022Z,22.81
2017-06-12T01:57:46.443Z,22.90
2017-06-12T01:58:47.860Z,22.76
2017-06-12T01:59:49.275Z,22.72
2017-06-12T02:00:50.693Z,22.80
2017-06-12T02:01:52.116Z,22.81
2017-06-12T02:02:53.542Z,22.83
2017-06-12T02:03:54.952Z,22.83
2017-06-12T02:04:56.366Z,22.78
2017-06-12T02:05:57.778Z,22.87
2017-06-12T02:06:59.198Z,22.73
2017-06-12T02:08:00.607Z,22.80
2017-06-12T02:09:02.027Z,22.70
2017-06-12T02:10:03.443Z,22.73
2017-06-12T02:11:04.861Z,22.72
2017-06-12T02:12:06.272Z,22.75
2017-06-12T02:13:07.690Z,22.75
2017-06-12T02:14:09.115Z,22.72
2017-06-12T02:15:10.532Z,22.73
2017-06-12T02:16:11.950Z,22.81
2017-06-12T02:17:13.366Z,22.72
2017-06-12T02:18:14.785Z,22.68
2017-06-12T02:19:16.195Z,22.78
2017-06-12T02:20:17.614Z,22.73
2017-06-12T02:21:19.024Z,22.78
2017-06-12T02:22:20.442Z,22.75
2017-06-12T02:23:21.858Z,22.76
2017-06-12T02:24:23.331Z,22.70
2017-06-12T02:25:24.748Z,22.73
2017-06-12T02:26:26.164Z,22.70
2017-06-12T02:27:27.580Z,22.68
2017-06-12T02:28:29.001Z,22.84
2017-06-12T02:29:30.415Z,22.72
2017-06-12T02:30:31.832Z,22.65
2017-06-12T02:31:33.253Z,22.78
2017-06-12T02:32:34.666Z,22.78
2017-06-12T02:33:36.078Z,22.66
2017-06-12T02:34:37.495Z,22.78
2017-06-12T02:35:38.919Z,22.75
2017-06-12T02:36:40.334Z,22.69
2017-06-12T02:37:41.754Z,22.76
2017-06-12T02:38:43.175Z,22.68
2017-06-12T02:39:44.588Z,22.72
2017-06-12T02:40:46.008Z,22.70
2017-06-12T02:41:47.438Z,22.72
2017-06-12T02:42:48.854Z,22.66
2017-06-12T02:43:50.304Z,22.68
2017-06-12T02:44:51.694Z,22.65
2017-06-12T02:45:53.112Z,22.66
2017-06-12T02:46:54.530Z,22.69
2017-06-12T02:47:55.944Z,22.70
2017-06-12T02:48:57.378Z,22.72
2017-06-12T02:49:58.790Z,22.65
2017-06-12T02:51:00.209Z,22.70
2017-06-12T02:52:01.626Z,22.62
2017-06-12T02:53:03.044Z,22.66
2017-06-12T02:54:04.505Z,22.63
2017-06-12T02:55:05.926Z,22.66
2017-06-12T02:56:07.340Z,22.57
2017-06-12T02:57:08.756Z,22.55
2017-06-12T02:58:10.175Z,22.65
2017-06-12T02:59:11.591Z,22.60
2017-06-12T03:00:13.010Z,22.57
2017-06-12T03:01:14.425Z,22.59
2017-06-12T03:02:15.842Z,22.51
2017-06-12T03:03:17.253Z,22.60
2017-06-12T03:04:18.670Z,22.62
2017-06-12T03:05:20.085Z,22.60
2017-06-12T03:06:21.500Z,22.62
2017-06-12T03:07:22.923Z,22.59
2017-06-12T03:08:24.338Z,22.63
2017-06-12T03:09:25.754Z,22.57
2017-06-12T03:10:27.182Z,22.53
2017-06-12T03:11:28.597Z,22.57
2017-06-12T03:12:30.010Z,22.65
2017-06-12T03:13:31.433Z,22.54
2017-06-12T03:14:32.852Z,22.55
2017-06-12T03:15:34.268Z,22.60
2017-06-12T03:16:35.682Z,22.54
2017-06-12T03:17:37.099Z,22.57
2017-06-12T03:18:38.579Z,22.57
2017-06-12T03:19:39.986Z,22.53
2017-06-12T03:20:41.407Z,22.54
2017-06-12T03:21:42.825Z,22.55
2017-06-12T03:22:44.238Z,22.60
2017-06-12T03:23:45.657Z,22.59
2017-06-12T03:24:47.071Z,22.57
2017-06-12T03:25:48.486Z,22.62
2017-06-12T03:26:49.907Z,22.55
2017-06-12T03:27:51.321Z,22.59
2017-06-12T03:28:52.742Z,22.55
2017-06-12T03:29:54.156Z,22.54
2017-06-12T03:30:55.572Z,22.54
2017-06-12T03:31:56.987Z,22.51
2017-06-12T03:32:58.421Z,22.65
2017-06-12T03:33:59.836Z,22.55
2017-06-12T03:35:01.254Z,22.59
2017-06-12T03:36:02.673Z,22.62
2017-06-12T03:37:04.088Z,22.54
2017-06-12T03:38:05.501Z,22.53
2017-06-12T03:39:06.923Z,22.59
2017-06-12T03:40:08.342Z,22.60
2017-06-12T03:41:09.767Z,22.51
2017-06-12T03:42:11.192Z,22.51
2017-06-12T03:43:12.607Z,22.60
2017-06-12T03:44:14.029Z,22.53
2017-06-12T03:45:15.443Z,22.54
2017-06-12T03:46:16.860Z,22.57
2017-06-12T03:47:18.288Z,22.59
2017-06-12T03:48:19.701Z,22.53
2017-06-12T03:49:21.157Z,22.60
2017-06-12T03:50:22.578Z,22.57
2017-06-12T03:51:24.001Z,22.55
2017-06-12T03:52:25.416Z,22.54
2017-06-12T03:53:26.834Z,22.54
2017-06-12T03:54:28.254Z,22.55
2017-06-12T03:55:29.671Z,22.60
2017-06-12T03:56:31.089Z,22.57
2017-06-12T03:57:32.512Z,22.55
2017-06-12T03:58:33.940Z,22.55
2017-06-12T03:59:35.351Z,22.59
2017-06-12T04:00:36.769Z,22.55
2017-06-12T04:01:38.184Z,22.57
2017-06-12T04:02:39.648Z,22.55
2017-06-12T04:03:41.049Z,22.54
2017-06-12T04:04:42.472Z,22.60
2017-06-12T04:05:46.245Z,22.54
2017-06-12T04:06:47.721Z,22.54
2017-06-12T04:07:49.419Z,22.59
2017-06-12T04:08:50.807Z,22.62
2017-06-12T04:09:52.328Z,22.57
2017-06-12T04:10:53.740Z,22.54
2017-06-12T04:11:55.175Z,22.53
2017-06-12T04:12:56.650Z,22.60
2017-06-12T04:13:58.067Z,22.54
2017-06-12T04:14:59.499Z,22.57
2017-06-12T04:16:00.979Z,22.62
2017-06-12T04:17:02.436Z,22.57
2017-06-12T04:18:03.856Z,22.60
2017-06-12T04:19:05.294Z,22.57
2017-06-12T04:20:06.725Z,22.53
2017-06-12T04:21:08.152Z,22.44
2017-06-12T04:22:09.581Z,22.39
2017-06-12T04:23:10.986Z,22.26
2017-06-12T04:24:12.414Z,21.95
2017-06-12T04:25:13.846Z,21.80
2017-06-12T04:26:15.292Z,21.57
2017-06-12T04:27:16.712Z,21.62
2017-06-12T04:28:18.129Z,21.55
2017-06-12T04:29:19.548Z,21.61
2017-06-12T04:30:20.977Z,21.51
2017-06-12T04:31:22.403Z,21.54
2017-06-12T04:33:25.252Z,21.62
2017-06-12T04:34:26.670Z,21.67
2017-06-12T04:35:28.089Z,21.72
2017-06-12T04:36:29.502Z,21.58
2017-06-12T04:37:30.926Z,21.61
2017-06-12T04:38:32.372Z,21.61
2017-06-12T04:39:33.803Z,21.45
2017-06-12T04:40:35.243Z,21.54
2017-06-12T04:41:37.468Z,21.57
2017-06-12T04:42:38.890Z,21.75
2017-06-12T04:43:40.304Z,21.61
2017-06-12T04:44:41.727Z,21.51
2017-06-12T04:45:43.150Z,21.45
2017-06-12T04:46:44.575Z,21.52
2017-06-12T04:47:45.994Z,21.37
2017-06-12T04:48:47.410Z,21.58
2017-06-12T04:49:48.830Z,21.57
2017-06-12T04:50:50.249Z,21.62
2017-06-12T04:51:51.671Z,21.64
2017-06-12T04:52:53.090Z,22.04
2017-06-12T04:53:54.509Z,22.04
2017-06-12T04:54:55.928Z,22.00
2017-06-12T04:55:57.351Z,21.79
2017-06-12T04:56:58.765Z,21.72
2017-06-12T04:58:00.184Z,21.64
2017-06-12T04:59:01.601Z,21.62
2017-06-12T05:00:03.019Z,21.55
2017-06-12T05:01:04.446Z,21.54
2017-06-12T05:02:05.875Z,21.48
2017-06-12T05:03:07.286Z,21.43
2017-06-12T05:04:08.704Z,21.50
2017-06-12T05:05:10.126Z,21.50
2017-06-12T05:06:11.587Z,21.64
2017-06-12T05:07:13.011Z,21.61
2017-06-12T05:08:14.439Z,21.54
2017-06-12T05:09:15.852Z,21.72
2017-06-12T05:10:17.452Z,21.76
2017-06-12T05:11:18.868Z,21.83
2017-06-12T05:12:20.326Z,21.82
2017-06-12T05:13:21.744Z,21.80
2017-06-12T05:14:23.166Z,21.77
2017-06-12T05:15:24.583Z,21.76
2017-06-12T05:16:26.005Z,21.67
2017-06-12T05:17:27.425Z,21.52
2017-06-12T05:18:28.879Z,21.48
2017-06-12T05:19:30.268Z,21.54
2017-06-12T05:20:31.684Z,21.43
2017-06-12T05:21:33.103Z,21.36
2017-06-12T05:22:34.531Z,21.36
2017-06-12T05:23:35.951Z,21.21
2017-06-12T05:24:37.374Z,21.22
2017-06-12T05:25:38.788Z,21.32
2017-06-12T05:26:40.208Z,21.37
2017-06-12T05:27:41.643Z,21.27
2017-06-12T05:28:43.065Z,21.33
2017-06-12T05:29:44.482Z,21.33
2017-06-12T05:30:45.910Z,21.32
2017-06-12T05:31:47.328Z,21.17
2017-06-12T05:32:48.759Z,21.17
2017-06-12T05:33:50.169Z,21.09
2017-06-12T05:34:51.631Z,21.30
2017-06-12T05:35:53.058Z,21.55
2017-06-12T05:36:54.479Z,21.79
2017-06-12T05:37:55.900Z,21.96
2017-06-12T05:38:57.323Z,22.11
2017-06-12T05:39:58.732Z,22.14
2017-06-12T05:41:00.177Z,22.20
2017-06-12T05:42:01.602Z,22.15
2017-06-12T05:43:03.028Z,22.23
2017-06-12T05:44:04.451Z,22.26
2017-06-12T05:45:05.879Z,22.30
2017-06-12T05:46:07.311Z,22.26
2017-06-12T05:47:08.721Z,22.32
2017-06-12T05:48:10.187Z,22.38
2017-06-12T05:49:11.670Z,22.47
2017-06-12T05:50:13.098Z,22.51
2017-06-12T05:51:14.513Z,22.45
2017-06-12T05:52:15.933Z,22.51
2017-06-12T05:53:17.358Z,22.50
2017-06-12T05:54:18.788Z,22.57
2017-06-12T05:55:20.211Z,22.57
2017-06-12T05:56:21.635Z,22.59
2017-06-12T05:57:23.039Z,22.60
2017-06-12T05:58:24.464Z,22.66
2017-06-12T05:59:25.938Z,22.68
2017-06-12T06:00:27.359Z,22.72
2017-06-12T06:01:28.781Z,22.73
2017-06-12T06:02:30.250Z,22.70
2017-06-12T06:03:31.669Z,22.70
2017-06-12T06:04:33.113Z,22.68
2017-06-12T06:05:34.535Z,22.68
2017-06-12T06:06:35.954Z,22.70
2017-06-12T06:07:37.371Z,22.69
2017-06-12T06:08:38.818Z,22.68
2017-06-12T06:09:40.237Z,22.75
2017-06-12T06:10:41.659Z,22.73
2017-06-12T06:11:43.078Z,22.73
2017-06-12T06:12:44.498Z,22.70
2017-06-12T06:13:45.917Z,22.76
2017-06-12T06:14:47.343Z,22.85
2017-06-12T06:15:48.767Z,22.84
2017-06-12T06:16:50.182Z,22.84
2017-06-12T06:17:51.602Z,22.87
2017-06-12T06:18:53.022Z,22.84
2017-06-12T06:19:54.448Z,23.00
2017-06-12T06:20:55.867Z,22.93
2017-06-12T06:21:57.283Z,22.98
2017-06-12T06:22:58.703Z,22.99
2017-06-12T06:24:00.121Z,22.99
2017-06-12T06:25:01.536Z,23.00
2017-06-12T06:26:02.961Z,23.03
2017-06-12T06:27:04.386Z,23.17
2017-06-12T06:28:05.841Z,23.12
2017-06-12T06:29:07.281Z,23.25
2017-06-12T06:30:08.702Z,23.12
2017-06-12T06:31:10.120Z,23.25
2017-06-12T06:32:11.535Z,23.28
2017-06-12T06:33:12.955Z,23.31
2017-06-12T06:34:14.379Z,23.28
2017-06-12T06:35:15.805Z,23.15
2017-06-12T06:36:17.215Z,23.21
2017-06-12T06:37:18.632Z,23.10
2017-06-12T06:38:20.059Z,23.24
2017-06-12T06:39:21.515Z,23.23
2017-06-12T06:40:22.940Z,23.24
2017-06-12T06:41:24.377Z,23.25
2017-06-12T06:42:25.802Z,23.32
2017-06-12T06:43:27.216Z,23.28
2017-06-12T06:44:28.633Z,23.34
2017-06-12T06:45:30.053Z,23.37
2017-06-12T06:46:31.474Z,23.34
2017-06-12T06:47:32.913Z,23.34
2017-06-12T06:48:34.325Z,23.24
2017-06-12T06:49:35.748Z,23.28
2017-06-12T06:50:37.177Z,23.34
2017-06-12T06:51:38.592Z,23.32
2017-06-12T06:52:40.012Z,23.44
2017-06-12T06:53:41.469Z,23.39
2017-06-12T06:54:42.894Z,23.44
2017-06-12T06:55:44.313Z,23.50
2017-06-12T06:56:45.735Z,23.58
2017-06-12T06:57:47.166Z,23.56
2017-06-12T06:58:48.593Z,23.55
2017-06-12T06:59:50.009Z,23.46
2017-06-12T07:00:51.429Z,23.51
2017-06-12T07:01:52.851Z,23.43
2017-06-12T07:02:54.294Z,23.34
2017-06-12T07:03:55.746Z,23.41
2017-06-12T07:04:57.173Z,23.41
2017-06-12T07:05:58.588Z,23.44
2017-06-12T07:07:00.005Z,23.46
2017-06-12T07:08:01.423Z,23.46
2017-06-12T07:09:02.850Z,23.46
2017-06-12T07:10:04.271Z,23.41
2017-06-12T07:11:05.697Z,23.36
2017-06-12T07:12:07.113Z,23.40
2017-06-12T07:13:08.528Z,23.43
2017-06-12T07:14:09.954Z,23.37
2017-06-12T07:15:11.382Z,23.36
2017-06-12T07:16:12.788Z,23.36
2017-06-12T07:17:14.227Z,23.31
2017-06-12T07:18:15.656Z,23.34
2017-06-12T07:19:17.071Z,23.39
2017-06-12T07:20:18.488Z,23.37
2017-06-12T07:21:19.907Z,23.31
2017-06-12T07:22:21.325Z,23.34
2017-06-12T07:23:22.747Z,23.40
2017-06-12T07:24:24.168Z,23.50
2017-06-12T07:25:25.614Z,23.51
2017-06-12T07:26:27.029Z,23.51
2017-06-12T07:27:28.451Z,23.43
2017-06-12T07:28:29.869Z,23.46
2017-06-12T07:29:31.292Z,23.47
2017-06-12T07:30:32.711Z,23.56
2017-06-12T07:31:34.311Z,23.56
2017-06-12T07:32:35.733Z,23.56
2017-06-12T07:33:37.149Z,23.66
2017-06-12T07:34:38.612Z,23.65
2017-06-12T07:35:40.030Z,23.61
2017-06-12T07:36:41.465Z,23.56
2017-06-12T07:37:42.891Z,23.48
2017-06-12T07:38:44.311Z,23.51
2017-06-12T07:39:45.740Z,23.44
2017-06-12T07:40:47.159Z,23.40
2017-06-12T07:41:48.577Z,23.40
2017-06-12T07:42:49.993Z,23.44
2017-06-12T07:43:51.411Z,23.40
2017-06-12T07:44:52.844Z,23.54
2017-06-12T07:45:54.273Z,23.62
2017-06-12T07:46:55.770Z,23.66
2017-06-12T07:47:57.183Z,23.69
2017-06-12T07:48:58.663Z,23.73
2017-06-12T07:50:00.084Z,23.73
2017-06-12T07:51:01.517Z,23.78
2017-06-12T07:52:02.944Z,23.68
2017-06-12T07:53:04.368Z,23.66
2017-06-12T07:54:05.790Z,23.62
2017-06-12T07:55:07.207Z,23.61
2017-06-12T07:56:08.629Z,23.59
2017-06-12T07:57:10.052Z,23.62
2017-06-12T07:58:11.473Z,23.59
2017-06-12T07:59:12.905Z,23.62
2017-06-12T08:00:14.339Z,23.63
2017-06-12T08:01:15.750Z,23.69
2017-06-12T08:02:17.175Z,23.66
2017-06-12T08:03:18.595Z,23.74
2017-06-12T08:04:20.017Z,23.78
2017-06-12T08:05:21.462Z,23.69
2017-06-12T08:06:22.881Z,23.68
2017-06-12T08:07:24.315Z,23.68
2017-06-12T08:08:25.737Z,23.69
2017-06-12T08:09:27.155Z,23.63
2017-06-12T08:10:28.578Z,23.62
2017-06-12T08:11:30.025Z,23.69
2017-06-12T08:12:31.448Z,23.74
2017-06-12T08:13:32.881Z,23.76
2017-06-12T08:14:34.310Z,23.84
2017-06-12T08:15:35.754Z,23.99
2017-06-12T08:16:37.197Z,23.95
2017-06-12T08:17:38.625Z,23.99
2017-06-12T08:18:40.031Z,23.92
2017-06-12T08:19:41.453Z,23.83
2017-06-12T08:20:42.878Z,23.83
2017-06-12T08:21:44.306Z,23.80
2017-06-12T08:22:45.732Z,23.86
2017-06-12T08:23:47.158Z,23.92
2017-06-12T08:24:48.585Z,23.84
2017-06-12T08:25:50.004Z,23.83
2017-06-12T08:26:51.424Z,23.87
2017-06-12T08:27:52.847Z,23.73
2017-06-12T08:28:54.270Z,23.88
2017-06-12T08:29:55.699Z,23.84
2017-06-12T08:30:57.112Z,23.83
2017-06-12T08:31:58.539Z,23.77
2017-06-12T08:32:59.958Z,23.86
2017-06-12T08:34:01.391Z,23.76
2017-06-12T08:35:02.812Z,23.78
2017-06-12T08:36:04.237Z,23.80
2017-06-12T08:37:05.665Z,23.83
2017-06-12T08:38:07.080Z,23.83
2017-06-12T08:39:08.506Z,23.98
2017-06-12T08:40:09.931Z,23.95
2017-06-12T08:41:11.359Z,23.92
2017-06-12T08:42:12.783Z,23.93
2017-06-12T08:43:14.206Z,23.93
2017-06-12T08:44:15.622Z,23.98
2017-06-12T08:45:17.039Z,23.91
2017-06-12T08:46:18.457Z,23.80
2017-06-12T08:47:19.877Z,23.81
2017-06-12T08:48:21.305Z,23.86
2017-06-12T08:49:22.761Z,23.84
2017-06-12T08:50:24.186Z,23.76
2017-06-12T08:51:25.627Z,23.74
2017-06-12T08:52:27.049Z,23.80
2017-06-12T08:53:28.466Z,23.84
2017-06-12T08:54:29.886Z,23.83
2017-06-12T08:55:31.308Z,23.95
2017-06-12T08:56:32.739Z,23.93
2017-06-12T08:57:34.171Z,23.99
2017-06-12T08:58:35.579Z,23.91
2017-06-12T08:59:36.997Z,23.84
2017-06-12T09:00:38.421Z,23.78
2017-06-12T09:01:39.843Z,23.83
2017-06-12T09:02:41.266Z,23.98
2017-06-12T09:03:42.682Z,23.92
2017-06-12T09:04:44.103Z,24.02
2017-06-12T09:05:45.524Z,23.98
2017-06-12T09:06:46.941Z,23.91
2017-06-12T09:07:48.366Z,23.92
2017-06-12T09:08:49.813Z,23.95
2017-06-12T09:09:51.205Z,23.93
2017-06-12T09:10:52.625Z,23.95
2017-06-12T09:11:54.045Z,23.93
2017-06-12T09:12:55.472Z,24.08
2017-06-12T09:13:56.901Z,23.98
2017-06-12T09:14:58.312Z,24.01
2017-06-12T09:15:59.737Z,23.95
2017-06-12T09:17:01.162Z,23.98
2017-06-12T09:18:02.580Z,24.05
2017-06-12T09:19:04.002Z,24.11
2017-06-12T09:20:05.424Z,24.11
2017-06-12T09:21:06.840Z,24.14
2017-06-12T09:22:08.280Z,24.14
2017-06-12T09:23:09.700Z,24.05
2017-06-12T09:24:11.119Z,24.13
2017-06-12T09:25:12.544Z,24.05
2017-06-12T09:26:13.965Z,23.98
2017-06-12T09:27:15.388Z,24.03
2017-06-12T09:28:16.811Z,24.06
2017-06-12T09:29:18.241Z,24.06
2017-06-12T09:30:19.658Z,24.10
2017-06-12T09:31:21.090Z,24.01
2017-06-12T09:32:22.512Z,24.08
2017-06-12T09:33:23.935Z,23.99
2017-06-12T09:34:25.357Z,23.98
2017-06-12T09:35:26.780Z,24.03
2017-06-12T09:36:28.201Z,24.03
2017-06-12T09:37:29.623Z,24.14
2017-06-12T09:38:31.043Z,24.05
2017-06-12T09:39:32.515Z,24.03
2017-06-12T09:40:33.973Z,23.98
2017-06-12T09:41:35.400Z,23.93
2017-06-12T09:42:36.832Z,23.93
2017-06-12T09:43:38.265Z,23.96
2017-06-12T09:44:39.678Z,23.92
2017-06-12T09:45:41.094Z,24.06
2017-06-12T09:46:42.514Z,24.17
2017-06-12T09:47:43.938Z,24.16
2017-06-12T09:48:45.371Z,24.08
2017-06-12T09:49:46.797Z,24.13
2017-06-12T09:50:48.216Z,23.99
2017-06-12T09:51:49.635Z,23.96
2017-06-12T09:52:51.056Z,23.95
2017-06-12T09:53:52.478Z,23.93
2017-06-12T09:54:53.900Z,23.91
2017-06-12T09:55:55.325Z,23.91
2017-06-12T09:56:56.740Z,23.81
2017-06-12T09:57:58.163Z,23.86
2017-06-12T09:58:59.587Z,23.88
2017-06-12T10:00:01.007Z,23.91
2017-06-12T10:01:02.433Z,23.98
2017-06-12T10:02:03.848Z,23.96
2017-06-12T10:03:05.298Z,23.98
2017-06-12T10:04:06.749Z,23.95
2017-06-12T10:05:08.170Z,23.93
2017-06-12T10:06:09.587Z,24.01
2017-06-12T10:07:11.013Z,23.99
2017-06-12T10:08:12.432Z,24.02
2017-06-12T10:09:13.859Z,23.98
2017-06-12T10:10:15.291Z,24.10
2017-06-12T10:11:16.708Z,24.18
2017-06-12T10:12:18.129Z,24.13
2017-06-12T10:13:19.551Z,24.06
2017-06-12T10:14:20.971Z,24.24
2017-06-12T10:15:22.406Z,24.21
2017-06-12T10:16:23.838Z,24.14
2017-06-12T10:17:25.273Z,24.13
2017-06-12T10:18:26.719Z,24.13
2017-06-12T10:19:28.165Z,24.10
2017-06-12T10:20:29.581Z,24.10
2017-06-12T10:21:31.002Z,23.95
2017-06-12T10:22:32.423Z,23.93
2017-06-12T10:23:33.843Z,23.96
2017-06-12T10:24:35.288Z,23.87
2017-06-12T10:25:36.708Z,23.96
2017-06-12T10:26:38.147Z,24.06
2017-06-12T10:27:39.574Z,24.03
2017-06-12T10:28:41.014Z,24.08
2017-06-12T10:29:42.452Z,24.08
2017-06-12T10:30:43.871Z,24.11
2017-06-12T10:31:45.298Z,24.33
2017-06-12T10:32:46.718Z,24.36
2017-06-12T10:33:48.134Z,24.36
2017-06-12T10:34:49.561Z,24.33
2017-06-12T10:35:50.989Z,24.23
2017-06-12T10:36:52.414Z,24.42
2017-06-12T10:37:53.838Z,24.40
2017-06-12T10:38:55.262Z,24.39
2017-06-12T10:39:56.683Z,24.47
2017-06-12T10:40:58.105Z,24.36
2017-06-12T10:41:59.556Z,24.42
2017-06-12T10:43:00.982Z,24.51
2017-06-12T10:44:02.414Z,24.45
2017-06-12T10:45:03.838Z,24.43
2017-06-12T10:46:05.260Z,24.30
2017-06-12T10:47:06.682Z,24.23
2017-06-12T10:48:08.122Z,24.20
2017-06-12T10:49:09.547Z,24.17
2017-06-12T10:50:10.969Z,24.23
2017-06-12T10:51:12.410Z,24.30
2017-06-12T10:52:13.835Z,24.23
2017-06-12T10:53:15.259Z,24.24
2017-06-12T10:54:16.694Z,24.21
2017-06-12T10:55:18.119Z,24.29
2017-06-12T10:56:19.545Z,24.36
2017-06-12T10:57:20.967Z,24.36
2017-06-12T10:58:22.395Z,24.40
2017-06-12T10:59:23.814Z,24.40
2017-06-12T11:00:25.231Z,24.42
2017-06-12T11:01:26.657Z,24.45
2017-06-12T11:02:28.073Z,24.28
2017-06-12T11:03:29.494Z,24.28
2017-06-12T11:04:30.921Z,24.21
2017-06-12T11:05:32.347Z,24.20
2017-06-12T11:06:33.768Z,24.21
2017-06-12T11:07:35.189Z,24.17
2017-06-12T11:08:36.606Z,24.17
2017-06-12T11:09:38.027Z,24.14
2017-06-12T11:10:39.449Z,24.11
2017-06-12T11:11:40.867Z,24.10
2017-06-12T11:12:42.287Z,24.05
2017-06-12T11:13:43.709Z,24.13
2017-06-12T11:14:45.132Z,24.23
2017-06-12T11:15:46.556Z,24.23
2017-06-12T11:16:47.974Z,24.38
2017-06-12T11:17:49.391Z,24.42
2017-06-12T11:18:50.814Z,24.32
2017-06-12T11:19:52.231Z,24.23
2017-06-12T11:20:53.656Z,24.24
2017-06-12T11:21:55.088Z,24.16
2017-06-12T11:22:56.524Z,24.18
2017-06-12T11:23:57.942Z,24.14
2017-06-12T11:24:59.366Z,24.13
2017-06-12T11:26:00.784Z,24.20
2017-06-12T11:27:02.215Z,24.13
2017-06-12T11:28:03.627Z,24.17
2017-06-12T11:29:05.050Z,24.16
2017-06-12T11:30:06.473Z,24.11
2017-06-12T11:31:07.895Z,24.23
2017-06-12T11:32:09.341Z,24.28
2017-06-12T11:33:10.768Z,24.36
2017-06-12T11:34:12.188Z,24.35
2017-06-12T11:35:13.617Z,24.30
2017-06-12T11:36:15.052Z,24.29
2017-06-12T11:37:16.481Z,24.47
2017-06-12T11:38:17.900Z,24.48
2017-06-12T11:39:19.318Z,24.40
2017-06-12T11:40:20.751Z,24.35
2017-06-12T11:41:22.172Z,24.42
2017-06-12T11:42:23.592Z,24.36
2017-06-12T11:43:25.024Z,24.36
2017-06-12T11:44:26.443Z,24.35
2017-06-12T11:45:27.860Z,24.33
2017-06-12T11:46:29.280Z,24.36
2017-06-12T11:47:30.702Z,24.38
2017-06-12T11:48:32.127Z,24.35
2017-06-12T11:49:33.549Z,24.36
2017-06-12T11:50:34.966Z,24.30
2017-06-12T11:51:36.385Z,24.32
2017-06-12T11:52:37.802Z,24.24
2017-06-12T11:53:39.230Z,24.18
2017-06-12T11:54:40.654Z,24.23
2017-06-12T11:55:42.074Z,24.23
2017-06-12T11:56:43.496Z,24.20
2017-06-12T11:57:44.915Z,24.23
2017-06-12T11:58:46.353Z,24.18
2017-06-12T11:59:47.773Z,24.26
2017-06-12T12:00:49.212Z,24.24
2017-06-12T12:01:50.624Z,24.26
2017-06-12T12:02:52.065Z,24.30
2017-06-12T12:03:53.490Z,24.33
2017-06-12T12:04:54.911Z,24.35
2017-06-12T12:05:56.341Z,24.24
2017-06-12T12:06:57.758Z,24.45
2017-06-12T12:07:59.179Z,24.38
2017-06-12T12:09:00.600Z,24.26
2017-06-12T12:10:02.031Z,24.33
2017-06-12T12:11:03.459Z,24.29
2017-06-12T12:12:04.886Z,24.24
2017-06-12T12:13:06.309Z,24.33
2017-06-12T12:14:07.729Z,24.26
2017-06-12T12:15:09.153Z,24.23
2017-06-12T12:16:10.567Z,24.21
2017-06-12T12:17:11.992Z,24.21
2017-06-12T12:18:13.409Z,24.23
2017-06-12T12:19:14.838Z,24.24
2017-06-12T12:20:16.262Z,24.28
2017-06-12T12:21:17.700Z,24.28
2017-06-12T12:22:19.149Z,24.28
2017-06-12T12:23:20.592Z,24.35
2017-06-12T12:24:21.997Z,24.39
2017-06-12T12:25:23.419Z,24.47
2017-06-12T12:26:24.853Z,24.35
2017-06-12T12:27:26.273Z,24.33
2017-06-12T12:28:27.690Z,24.40
2017-06-12T12:29:29.118Z,24.38
2017-06-12T12:30:30.535Z,24.24
2017-06-12T12:31:31.971Z,24.28
2017-06-12T12:32:33.391Z,24.17
2017-06-12T12:33:34.807Z,24.10
2017-06-12T12:34:36.241Z,24.13
2017-06-12T12:35:37.663Z,24.08
2017-06-12T12:36:39.093Z,24.16
2017-06-12T12:37:40.516Z,24.06
2017-06-12T12:38:41.950Z,24.14
2017-06-12T12:39:43.370Z,24.13
2017-06-12T12:40:44.792Z,24.24
2017-06-12T12:41:46.213Z,24.20
2017-06-12T12:42:47.633Z,24.20
2017-06-12T12:43:49.057Z,24.26
2017-06-12T12:44:50.486Z,24.20
2017-06-12T12:45:51.927Z,24.24
2017-06-12T12:46:53.349Z,24.29
2017-06-12T12:47:54.771Z,24.36
2017-06-12T12:48:56.190Z,24.36
2017-06-12T12:49:57.631Z,24.35
2017-06-12T12:50:59.050Z,24.38
2017-06-12T12:52:00.478Z,24.33
2017-06-12T12:53:01.915Z,24.38
2017-06-12T12:54:03.338Z,24.35
2017-06-12T12:55:04.761Z,24.35
2017-06-12T12:56:06.178Z,24.32
2017-06-12T12:57:07.603Z,24.32
2017-06-12T12:58:09.029Z,24.36
2017-06-12T12:59:10.447Z,24.36
2017-06-12T13:00:11.874Z,24.36
2017-06-12T13:01:13.293Z,24.36
2017-06-12T13:02:14.712Z,24.26
2017-06-12T13:03:16.148Z,24.39
2017-06-12T13:04:17.576Z,24.28
2017-06-12T13:05:18.996Z,24.32
2017-06-12T13:06:20.414Z,24.32
2017-06-12T13:07:21.865Z,24.28
2017-06-12T13:08:23.285Z,24.26
2017-06-12T13:09:24.697Z,24.32
2017-06-12T13:10:26.152Z,24.29
2017-06-12T13:11:27.570Z,24.26